createdAt,value
2023-08-07T00:02:10.581Z,18.30
2023-08-07T00:04:37.443Z,18.40
2023-08-07T00:07:04.441Z,18.30
2023-08-07T00:09:32.138Z,18.70
2023-08-07T00:11:58.982Z,19.00
2023-08-07T00:14:25.934Z,19.10
2023-08-07T00:16:52.782Z,19.20
2023-08-07T00:19:19.584Z,19.50
2023-08-07T00:21:46.461Z,19.50
2023-08-07T00:24:13.517Z,19.80
2023-08-07T00:26:40.411Z,19.90
2023-08-07T00:29:07.324Z,20.00
2023-08-07T00:31:34.248Z,20.10
2023-08-07T00:34:01.313Z,19.90
2023-08-07T00:36:35.720Z,19.80
2023-08-07T00:39:04.683Z,21.00
2023-08-07T00:41:31.692Z,19.80
2023-08-07T00:43:58.754Z,19.90
2023-08-07T00:46:26.037Z,20.00
2023-08-07T00:48:54.133Z,19.80
2023-08-07T00:51:22.824Z,19.70
2023-08-07T00:53:50.192Z,19.50
2023-08-07T00:56:17.531Z,19.50
2023-08-07T00:58:45.272Z,19.40
2023-08-07T01:01:12.204Z,19.50
2023-08-07T01:03:39.253Z,19.70
2023-08-07T01:06:06.169Z,19.70
2023-08-07T01:08:33.304Z,20.00
2023-08-07T01:11:21.951Z,20.10
2023-08-07T01:14:13.718Z,20.10
2023-08-07T01:16:48.096Z,20.10
2023-08-07T01:19:26.235Z,20.50
2023-08-07T01:22:25.635Z,21.00
2023-08-07T01:24:52.545Z,21.70
2023-08-07T01:27:19.411Z,22.20
2023-08-07T01:30:08.455Z,21.00
2023-08-07T01:33:00.028Z,20.90
2023-08-07T01:35:31.356Z,21.00
2023-08-07T01:38:00.909Z,21.00
2023-08-07T01:40:29.104Z,20.90
2023-08-07T01:42:56.139Z,21.00
2023-08-07T01:45:27.988Z,21.00
2023-08-07T01:47:55.095Z,20.60
2023-08-07T01:50:23.646Z,20.10
2023-08-07T01:52:51.054Z,19.70
2023-08-07T01:55:19.179Z,19.60
2023-08-07T01:57:46.096Z,19.60
2023-08-07T02:00:13.306Z,19.70
2023-08-07T02:02:40.269Z,19.80
2023-08-07T02:05:07.601Z,19.50
2023-08-07T02:07:34.718Z,19.80
2023-08-07T02:10:01.651Z,19.50
2023-08-07T02:12:30.810Z,20.60
2023-08-07T02:14:57.659Z,19.50
2023-08-07T02:17:25.690Z,19.40
2023-08-07T02:19:52.595Z,19.10
2023-08-07T02:22:19.370Z,19.10
2023-08-07T02:24:46.275Z,19.10
2023-08-07T02:27:13.173Z,18.20
2023-08-07T02:29:40.074Z,18.90
2023-08-07T02:32:07.247Z,18.90
2023-08-07T02:34:34.181Z,18.70
2023-08-07T02:37:00.987Z,19.80
2023-08-07T02:39:27.868Z,18.60
2023-08-07T02:41:54.649Z,18.50
2023-08-07T02:44:21.825Z,18.40
2023-08-07T02:46:48.783Z,18.40
2023-08-07T02:49:15.867Z,19.10
2023-08-07T02:51:42.725Z,19.40
2023-08-07T02:54:09.757Z,19.10
2023-08-07T02:56:36.560Z,18.80
2023-08-07T02:59:03.404Z,18.80
2023-08-07T03:01:30.822Z,18.70
2023-08-07T03:03:57.783Z,18.80
2023-08-07T03:06:24.819Z,18.80
2023-08-07T03:08:51.790Z,18.90
2023-08-07T03:11:18.723Z,18.80
2023-08-07T03:13:45.625Z,19.20
2023-08-07T03:16:12.607Z,18.90
2023-08-07T03:18:39.507Z,18.90
2023-08-07T03:21:06.358Z,18.80
2023-08-07T03:23:33.328Z,18.80
2023-08-07T03:28:41.290Z,19.10
2023-08-07T03:31:08.323Z,19.20
2023-08-07T03:33:35.367Z,19.40
2023-08-07T03:36:02.259Z,19.70
2023-08-07T03:38:29.436Z,19.70
2023-08-07T03:40:56.451Z,19.80
2023-08-07T03:43:23.392Z,20.10
2023-08-07T03:46:02.133Z,20.10
2023-08-07T03:48:29.737Z,20.30
2023-08-07T03:51:04.177Z,21.10
2023-08-07T03:53:30.988Z,21.20
2023-08-07T03:55:57.890Z,21.20
2023-08-07T03:58:24.761Z,21.20
2023-08-07T04:00:53.203Z,21.10
2023-08-07T04:03:21.349Z,21.30
2023-08-07T04:05:48.599Z,21.10
2023-08-07T04:08:15.851Z,21.20
2023-08-07T04:10:42.725Z,21.10
2023-08-07T04:13:09.644Z,20.80
2023-08-07T04:15:36.524Z,21.90
2023-08-07T04:18:03.624Z,20.60
2023-08-07T04:20:30.609Z,21.20
2023-08-07T04:22:57.460Z,21.20
2023-08-07T04:25:24.523Z,21.30
2023-08-07T04:27:51.418Z,21.40
2023-08-07T04:30:18.362Z,21.20
2023-08-07T04:32:45.314Z,20.80
2023-08-07T04:35:12.100Z,20.90
2023-08-07T04:37:39.636Z,20.90
2023-08-07T04:40:09.757Z,20.90
2023-08-07T04:42:37.915Z,21.20
2023-08-07T04:45:05.191Z,21.30
2023-08-07T04:47:32.049Z,21.30
2023-08-07T04:49:58.904Z,21.30
2023-08-07T04:52:26.800Z,21.30
2023-08-07T04:54:54.086Z,21.50
2023-08-07T04:57:21.049Z,21.20
2023-08-07T04:59:47.828Z,20.50
2023-08-07T05:02:14.696Z,20.70
2023-08-07T05:04:41.631Z,19.90
2023-08-07T05:07:08.803Z,19.70
2023-08-07T05:09:35.746Z,19.50
2023-08-07T05:12:02.683Z,19.40
2023-08-07T05:14:30.814Z,19.00
2023-08-07T05:16:57.699Z,19.50
2023-08-07T05:19:24.678Z,18.90
2023-08-07T05:21:52.112Z,18.50
2023-08-07T05:24:19.518Z,18.60
2023-08-07T05:26:46.701Z,18.60
2023-08-07T05:29:13.554Z,18.30
2023-08-07T05:31:40.442Z,18.00
2023-08-07T05:34:07.889Z,18.00
2023-08-07T05:36:36.047Z,18.10
2023-08-07T05:39:05.324Z,18.00
2023-08-07T05:41:32.329Z,18.30
2023-08-07T05:43:59.302Z,18.00
2023-08-07T05:46:26.166Z,18.10
2023-08-07T05:48:53.230Z,18.40
2023-08-07T05:51:20.802Z,17.70
2023-08-07T05:53:47.586Z,19.30
2023-08-07T05:56:14.593Z,17.90
2023-08-07T05:58:41.672Z,17.80
2023-08-07T06:01:08.611Z,18.00
2023-08-07T06:03:35.500Z,18.50
2023-08-07T06:06:02.422Z,20.50
2023-08-07T06:08:30.186Z,21.00
2023-08-07T06:10:57.339Z,20.60
2023-08-07T06:13:35.567Z,21.70
2023-08-07T06:16:03.637Z,18.30
2023-08-07T06:18:31.454Z,17.90
2023-08-07T06:20:58.366Z,17.30
2023-08-07T06:23:25.185Z,16.80
2023-08-07T06:25:56.959Z,16.20
2023-08-07T06:28:25.577Z,15.80
2023-08-07T06:30:52.349Z,15.60
2023-08-07T06:33:19.197Z,16.40
2023-08-07T06:35:46.135Z,15.00
2023-08-07T06:38:12.977Z,14.70
2023-08-07T06:40:40.920Z,14.70
2023-08-07T06:43:08.012Z,14.70
2023-08-07T06:45:35.161Z,14.70
2023-08-07T06:48:02.143Z,14.30
2023-08-07T06:50:28.996Z,14.10
2023-08-07T06:52:56.605Z,14.10
2023-08-07T06:55:23.926Z,14.10
2023-08-07T06:57:51.807Z,14.00
2023-08-07T07:00:18.735Z,13.80
2023-08-07T07:02:45.576Z,13.80
2023-08-07T07:05:12.492Z,13.80
2023-08-07T07:07:40.050Z,13.60
2023-08-07T07:10:08.463Z,13.40
2023-08-07T07:12:35.454Z,13.40
2023-08-07T07:15:02.335Z,13.20
2023-08-07T07:17:29.295Z,13.10
2023-08-07T07:19:57.964Z,14.10
2023-08-07T07:22:24.913Z,13.10
2023-08-07T07:24:51.759Z,13.20
2023-08-07T07:27:19.601Z,13.60
2023-08-07T07:29:48.254Z,13.10
2023-08-07T07:32:15.329Z,12.80
2023-08-07T07:34:42.163Z,13.20
2023-08-07T07:37:09.040Z,13.30
2023-08-07T07:39:36.461Z,13.60
2023-08-07T07:42:05.507Z,13.70
2023-08-07T07:44:32.660Z,13.90
2023-08-07T07:46:59.751Z,15.30
2023-08-07T07:49:26.940Z,14.70
2023-08-07T07:51:53.730Z,13.80
2023-08-07T07:54:20.844Z,13.70
2023-08-07T07:56:47.709Z,13.80
2023-08-07T07:59:14.905Z,13.80
2023-08-07T08:01:41.822Z,13.90
2023-08-07T08:04:11.245Z,13.30
2023-08-07T08:06:39.002Z,13.20
2023-08-07T08:09:05.894Z,13.30
2023-08-07T08:11:32.945Z,12.80
2023-08-07T08:13:59.902Z,12.90
2023-08-07T08:16:26.729Z,12.70
2023-08-07T08:18:54.687Z,12.60
2023-08-07T08:21:21.520Z,11.90
2023-08-07T08:23:48.340Z,11.70
2023-08-07T08:26:15.233Z,10.90
2023-08-07T08:28:42.007Z,10.70
2023-08-07T08:31:10.060Z,10.40
2023-08-07T08:33:36.953Z,10.50
2023-08-07T08:36:03.950Z,10.70
2023-08-07T08:38:33.880Z,10.90
2023-08-07T08:41:04.314Z,9.20
2023-08-07T08:43:37.286Z,9.60
2023-08-07T08:46:06.517Z,7.60
2023-08-07T08:48:37.227Z,8.50
2023-08-07T08:51:05.592Z,8.20
2023-08-07T08:53:33.823Z,9.20
2023-08-07T08:56:03.117Z,7.00
2023-08-07T08:58:30.461Z,6.50
2023-08-07T09:00:57.609Z,4.80
2023-08-07T09:03:26.009Z,6.10
2023-08-07T09:05:58.164Z,5.80
2023-08-07T09:08:28.349Z,5.40
2023-08-07T09:10:55.480Z,6.30
2023-08-07T09:13:25.190Z,6.20
2023-08-07T09:15:53.495Z,5.70
2023-08-07T09:18:21.500Z,5.40
2023-08-07T09:20:49.671Z,4.80
2023-08-07T09:23:18.117Z,4.40
2023-08-07T09:25:45.814Z,3.30
2023-08-07T09:28:13.151Z,3.60
2023-08-07T09:30:43.489Z,4.40
2023-08-07T09:33:11.513Z,4.00
2023-08-07T09:35:38.567Z,1.40
2023-08-07T09:38:05.538Z,4.60
2023-08-07T09:40:33.020Z,4.60
2023-08-07T09:43:02.585Z,4.10
2023-08-07T09:45:31.349Z,3.80
2023-08-07T09:48:02.932Z,1.70
2023-08-07T09:50:31.279Z,3.30
2023-08-07T09:53:02.386Z,4.80
2023-08-07T09:55:29.473Z,2.40
2023-08-07T09:57:56.371Z,1.00
2023-08-07T10:00:23.355Z,2.20
2023-08-07T10:02:51.537Z,1.30
2023-08-07T10:05:19.017Z,2.80
2023-08-07T10:07:50.685Z,1.90
2023-08-07T10:10:18.218Z,1.00
2023-08-07T10:12:47.529Z,1.00
2023-08-07T10:15:15.786Z,1.00
2023-08-07T10:17:44.653Z,1.00
2023-08-07T10:20:13.857Z,2.60
2023-08-07T10:22:43.662Z,2.80
2023-08-07T10:25:10.703Z,1.80
2023-08-07T10:27:40.146Z,1.50
2023-08-07T10:30:10.487Z,1.00
2023-08-07T10:32:37.936Z,1.00
2023-08-07T10:35:08.638Z,1.00
2023-08-07T10:37:41.682Z,1.00
2023-08-07T10:40:10.977Z,1.00
2023-08-07T10:42:58.131Z,1.00
2023-08-07T10:45:26.024Z,1.00
2023-08-07T10:48:03.181Z,1.10
2023-08-07T10:50:34.641Z,1.80
2023-08-07T10:53:03.182Z,1.00
2023-08-07T10:55:45.609Z,1.00
2023-08-07T10:58:30.642Z,1.00
2023-08-07T11:01:28.832Z,1.00
2023-08-07T11:03:58.036Z,1.00
2023-08-07T11:06:32.631Z,1.00
2023-08-07T11:09:00.652Z,1.00
2023-08-07T11:11:41.866Z,1.00
2023-08-07T11:14:10.710Z,1.00
2023-08-07T11:16:38.164Z,1.00
2023-08-07T11:19:06.198Z,1.00
2023-08-07T11:21:34.570Z,1.00
2023-08-07T11:24:02.589Z,1.20
2023-08-07T11:26:29.590Z,1.00
2023-08-07T11:28:57.282Z,1.00
2023-08-07T11:31:26.008Z,1.00
2023-08-07T11:33:58.675Z,1.00
2023-08-07T11:36:26.162Z,1.00
2023-08-07T11:38:53.212Z,1.00
2023-08-07T11:41:20.729Z,1.00
2023-08-07T11:43:48.406Z,1.00
2023-08-07T11:46:16.955Z,1.00
2023-08-07T11:48:45.438Z,1.00
2023-08-07T11:51:13.092Z,1.00
2023-08-07T11:53:41.895Z,1.00
2023-08-07T11:56:17.018Z,1.00
2023-08-07T11:58:47.284Z,1.00
2023-08-07T12:01:22.484Z,1.00
2023-08-07T12:03:57.183Z,1.00
2023-08-07T12:06:27.601Z,1.00
2023-08-07T12:08:58.858Z,1.00
2023-08-07T12:11:26.161Z,1.00
2023-08-07T12:13:53.106Z,1.00
2023-08-07T12:16:20.142Z,1.00
2023-08-07T12:18:52.449Z,1.00
2023-08-07T12:21:21.848Z,1.00
2023-08-07T12:23:51.506Z,1.00
2023-08-07T12:26:19.126Z,1.00
2023-08-07T12:28:46.115Z,1.00
2023-08-07T12:31:13.099Z,1.00
2023-08-07T12:33:39.875Z,1.00
2023-08-07T12:36:20.244Z,1.00
2023-08-07T12:38:48.323Z,1.00
2023-08-07T12:43:45.328Z,1.00
2023-08-07T12:48:42.030Z,1.00
2023-08-07T12:51:09.114Z,1.00
2023-08-07T12:53:36.240Z,1.00
2023-08-07T12:56:04.167Z,1.00
2023-08-07T12:58:31.105Z,1.00
2023-08-07T13:00:58.483Z,1.00
2023-08-07T13:03:25.741Z,1.00
2023-08-07T13:05:52.692Z,1.00
2023-08-07T13:08:19.646Z,1.00
2023-08-07T13:10:49.753Z,1.00
2023-08-07T13:13:17.222Z,1.00
2023-08-07T13:15:44.107Z,1.00
2023-08-07T13:18:11.909Z,1.00
2023-08-07T13:20:38.770Z,1.00
2023-08-07T13:23:07.637Z,1.00
2023-08-07T13:25:34.783Z,1.00
2023-08-07T13:28:02.394Z,1.00
2023-08-07T13:30:34.250Z,1.00
2023-08-07T13:33:03.788Z,1.00
2023-08-07T13:35:30.829Z,1.00
2023-08-07T13:37:57.638Z,1.00
2023-08-07T13:40:25.004Z,1.00
2023-08-07T13:42:51.964Z,1.00
2023-08-07T13:45:18.876Z,1.00
2023-08-07T13:47:45.843Z,1.00
2023-08-07T13:50:14.077Z,1.00
2023-08-07T13:52:41.154Z,1.00
2023-08-07T13:55:10.149Z,1.00
2023-08-07T13:57:37.255Z,1.00
2023-08-07T14:00:04.675Z,1.00
2023-08-07T14:02:32.982Z,1.00
2023-08-07T14:05:00.057Z,1.00
2023-08-07T14:07:27.154Z,1.00
2023-08-07T14:09:54.092Z,1.00
2023-08-07T14:12:20.866Z,1.00
2023-08-07T14:14:47.758Z,1.00
2023-08-07T14:17:14.614Z,1.00
2023-08-07T14:19:41.414Z,1.00
2023-08-07T14:22:08.271Z,1.00
2023-08-07T14:24:35.184Z,1.00
2023-08-07T14:27:02.049Z,1.00
2023-08-07T14:29:29.008Z,1.00
2023-08-07T14:31:55.820Z,1.00
2023-08-07T14:34:22.813Z,1.00
2023-08-07T14:36:50.158Z,1.00
2023-08-07T14:39:17.002Z,1.00
2023-08-07T14:41:43.991Z,1.00
2023-08-07T14:44:10.814Z,1.00
2023-08-07T14:46:39.422Z,1.00
2023-08-07T14:49:06.351Z,1.00
2023-08-07T14:51:33.219Z,1.00
2023-08-07T14:54:00.132Z,1.00
2023-08-07T14:56:27.175Z,1.00
2023-08-07T14:58:54.223Z,1.00
2023-08-07T15:01:21.629Z,1.00
2023-08-07T15:03:48.696Z,1.00
2023-08-07T15:06:15.862Z,1.00
2023-08-07T15:08:42.784Z,1.00
2023-08-07T15:11:09.780Z,1.00
2023-08-07T15:13:36.990Z,1.00
2023-08-07T15:16:03.924Z,1.00
2023-08-07T15:18:30.885Z,1.00
2023-08-07T15:20:58.620Z,1.00
2023-08-07T15:23:25.617Z,1.00
2023-08-07T15:25:52.525Z,1.00
2023-08-07T15:28:19.400Z,1.00
2023-08-07T15:30:53.730Z,1.00
2023-08-07T15:33:22.814Z,1.00
2023-08-07T15:35:55.163Z,1.00
2023-08-07T15:38:23.013Z,1.00
2023-08-07T15:40:50.092Z,1.00
2023-08-07T15:43:17.160Z,1.00
2023-08-07T15:45:46.589Z,1.00
2023-08-07T15:48:13.967Z,1.00
2023-08-07T15:50:40.884Z,1.00
2023-08-07T15:53:07.923Z,1.00
2023-08-07T15:55:36.965Z,1.00
2023-08-07T15:58:05.430Z,1.00
2023-08-07T16:00:36.892Z,1.00
2023-08-07T16:03:06.123Z,1.00
2023-08-07T16:05:33.934Z,1.00
2023-08-07T16:08:01.470Z,1.00
2023-08-07T16:10:29.479Z,1.00
2023-08-07T16:12:57.319Z,1.00
2023-08-07T16:15:24.315Z,1.00
2023-08-07T16:17:51.218Z,1.00
2023-08-07T16:20:19.484Z,1.00
2023-08-07T16:22:46.562Z,1.00
2023-08-07T16:25:13.564Z,1.00
2023-08-07T16:27:40.979Z,1.00
2023-08-07T16:30:08.692Z,1.00
2023-08-07T16:32:37.824Z,1.00
2023-08-07T16:35:05.465Z,1.00
2023-08-07T16:37:33.448Z,1.00
2023-08-07T16:40:00.866Z,1.00
2023-08-07T16:42:28.101Z,1.00
2023-08-07T16:44:55.093Z,1.00
2023-08-07T16:47:21.891Z,1.00
2023-08-07T16:49:49.464Z,1.00
2023-08-07T16:52:17.341Z,1.00
2023-08-07T16:54:45.284Z,1.00
2023-08-07T16:57:12.110Z,1.00
2023-08-07T16:59:38.950Z,1.00
2023-08-07T17:02:08.069Z,1.00
2023-08-07T17:04:36.565Z,1.00
2023-08-07T17:07:04.011Z,1.00
2023-08-07T17:09:30.987Z,1.00
2023-08-07T17:11:58.430Z,1.00
2023-08-07T17:14:25.891Z,1.00
2023-08-07T17:16:52.892Z,1.00
2023-08-07T17:19:22.235Z,1.00
2023-08-07T17:21:49.840Z,1.00
2023-08-07T17:24:16.890Z,1.00
2023-08-07T17:26:44.159Z,1.00
2023-08-07T17:29:11.087Z,1.00
2023-08-07T17:31:38.021Z,1.00
2023-08-07T17:34:04.974Z,1.00
2023-08-07T17:36:31.792Z,1.00
2023-08-07T17:38:59.998Z,1.00
2023-08-07T17:41:28.487Z,1.00
2023-08-07T17:43:55.764Z,1.00
2023-08-07T17:46:22.825Z,1.00
2023-08-07T17:48:49.698Z,1.00
2023-08-07T17:51:16.541Z,1.00
2023-08-07T17:53:43.595Z,1.00
2023-08-07T17:56:10.621Z,1.00
2023-08-07T17:58:37.505Z,1.00
2023-08-07T18:01:04.754Z,1.00
2023-08-07T18:03:31.903Z,1.00
2023-08-07T18:05:58.851Z,1.00
2023-08-07T18:08:26.027Z,1.00
2023-08-07T18:10:52.981Z,1.00
2023-08-07T18:13:19.966Z,1.00
2023-08-07T18:15:46.915Z,1.00
2023-08-07T18:18:13.751Z,1.00
2023-08-07T18:20:40.690Z,1.00
2023-08-07T18:23:07.559Z,1.00
2023-08-07T18:25:34.556Z,1.00
2023-08-07T18:28:01.627Z,1.00
2023-08-07T18:30:28.714Z,1.00
2023-08-07T18:32:55.650Z,1.00
2023-08-07T18:35:22.577Z,1.00
2023-08-07T18:37:49.561Z,1.00
2023-08-07T18:40:16.527Z,1.00
2023-08-07T18:42:44.228Z,1.00
2023-08-07T18:45:11.401Z,1.00
2023-08-07T18:47:38.549Z,1.00
2023-08-07T18:50:06.328Z,1.00
2023-08-07T18:52:33.309Z,1.00
2023-08-07T18:55:00.296Z,1.00
2023-08-07T18:57:27.113Z,1.00
2023-08-07T18:59:54.334Z,1.00
2023-08-07T19:02:21.353Z,1.00
2023-08-07T19:04:48.432Z,1.00
2023-08-07T19:07:15.236Z,1.00
2023-08-07T19:09:42.213Z,1.00
2023-08-07T19:12:09.629Z,1.00
2023-08-07T19:14:36.734Z,1.00
2023-08-07T19:17:08.265Z,1.00
2023-08-07T19:19:35.974Z,1.00
2023-08-07T19:22:04.602Z,1.00
2023-08-07T19:24:31.753Z,1.00
2023-08-07T19:26:58.807Z,1.00
2023-08-07T19:29:26.309Z,1.00
2023-08-07T19:31:53.416Z,1.00
2023-08-07T19:34:20.613Z,1.00
2023-08-07T19:36:50.579Z,1.00
2023-08-07T19:39:18.323Z,1.00
2023-08-07T19:41:45.250Z,1.00
2023-08-07T19:44:12.107Z,1.00
2023-08-07T19:46:38.950Z,1.00
2023-08-07T19:49:05.889Z,1.00
2023-08-07T19:51:33.242Z,1.00
2023-08-07T19:54:03.189Z,1.00
2023-08-07T19:56:32.766Z,1.00
2023-08-07T19:59:05.731Z,1.00
2023-08-07T20:01:33.416Z,1.00
2023-08-07T20:04:00.580Z,1.00
2023-08-07T20:06:27.694Z,1.00
2023-08-07T20:08:54.502Z,1.00
2023-08-07T20:11:21.365Z,1.00
2023-08-07T20:13:48.346Z,1.00
2023-08-07T20:16:15.264Z,1.00
2023-08-07T20:18:42.081Z,1.00
2023-08-07T20:21:08.917Z,1.00
2023-08-07T20:23:35.833Z,1.00
2023-08-07T20:26:02.708Z,1.00
2023-08-07T20:28:29.490Z,1.00
2023-08-07T20:30:56.296Z,1.00
2023-08-07T20:33:23.413Z,1.00
2023-08-07T20:35:50.299Z,1.00
2023-08-07T20:38:17.302Z,1.00
2023-08-07T20:40:44.136Z,1.00
2023-08-07T20:43:11.120Z,1.00
2023-08-07T20:45:38.225Z,1.00
2023-08-07T20:48:05.517Z,1.00
2023-08-07T20:50:32.695Z,1.00
2023-08-07T20:52:59.510Z,1.00
2023-08-07T20:55:26.345Z,1.00
2023-08-07T20:57:53.200Z,1.00
2023-08-07T21:00:20.096Z,1.00
2023-08-07T21:02:46.950Z,1.00
2023-08-07T21:05:14.698Z,1.00
2023-08-07T21:07:41.717Z,1.00
2023-08-07T21:10:08.964Z,1.00
2023-08-07T21:12:36.465Z,1.00
2023-08-07T21:15:05.541Z,1.00
2023-08-07T21:17:32.823Z,1.00
2023-08-07T21:19:59.733Z,1.00
2023-08-07T21:22:26.588Z,1.00
2023-08-07T21:24:53.423Z,1.00
2023-08-07T21:27:21.845Z,1.00
2023-08-07T21:29:48.848Z,1.00
2023-08-07T21:32:15.651Z,1.00
2023-08-07T21:34:42.479Z,1.00
2023-08-07T21:37:09.339Z,1.00
2023-08-07T21:39:36.196Z,1.00
2023-08-07T21:42:03.305Z,1.00
2023-08-07T21:44:30.242Z,1.00
2023-08-07T21:46:57.026Z,1.00
2023-08-07T21:49:23.934Z,1.00
2023-08-07T21:51:50.916Z,1.00
2023-08-07T21:54:17.831Z,1.00
2023-08-07T21:56:45.491Z,1.00
2023-08-07T21:59:12.321Z,1.00
2023-08-07T22:01:39.644Z,1.10
2023-08-07T22:04:06.660Z,1.50
2023-08-07T22:06:33.590Z,2.10
2023-08-07T22:09:00.365Z,1.80
2023-08-07T22:11:27.256Z,1.90
2023-08-07T22:13:54.146Z,2.30
2023-08-07T22:16:21.133Z,2.40
2023-08-07T22:18:48.045Z,2.70
2023-08-07T22:21:18.882Z,2.90
2023-08-07T22:23:45.772Z,3.30
2023-08-07T22:26:12.656Z,3.40
2023-08-07T22:28:39.653Z,3.70
2023-08-07T22:31:07.033Z,3.90
2023-08-07T22:33:36.353Z,3.90
2023-08-07T22:36:04.412Z,4.00
2023-08-07T22:38:31.862Z,4.10
2023-08-07T22:40:58.693Z,4.20
2023-08-07T22:43:25.825Z,4.20
2023-08-07T22:45:52.723Z,4.30
2023-08-07T22:48:19.713Z,4.80
2023-08-07T22:50:46.507Z,4.40
2023-08-07T22:53:13.475Z,4.40
2023-08-07T22:55:40.356Z,4.40
2023-08-07T22:58:07.470Z,4.50
2023-08-07T23:00:34.660Z,4.90
2023-08-07T23:03:01.590Z,4.80
2023-08-07T23:05:28.517Z,4.70
2023-08-07T23:07:55.452Z,4.80
2023-08-07T23:10:24.035Z,4.80
2023-08-07T23:12:53.283Z,4.90
2023-08-07T23:15:20.941Z,4.90
2023-08-07T23:17:48.783Z,4.90
2023-08-07T23:20:16.065Z,4.90
2023-08-07T23:22:42.878Z,5.10
2023-08-07T23:25:15.567Z,5.20
2023-08-07T23:27:42.383Z,5.40
2023-08-07T23:30:09.965Z,5.50
2023-08-07T23:32:36.953Z,5.60
2023-08-07T23:35:04.078Z,5.90
2023-08-07T23:37:30.955Z,5.90
2023-08-07T23:39:57.744Z,6.10
2023-08-07T23:42:24.627Z,6.10
2023-08-07T23:44:51.532Z,6.20
2023-08-07T23:47:18.375Z,5.50
2023-08-07T23:49:45.387Z,6.30
2023-08-07T23:52:12.364Z,6.40
2023-08-07T23:54:39.239Z,7.50
2023-08-07T23:57:06.177Z,6.50
2023-08-07T23:59:33.146Z,6.50
